Latest Weather Observations for Perth Airport

IDW60901

Issued at 5:11 pm WST Sunday 24 May 2015 (issued every 10 minutes, with the page automatically refreshed every 10 minutes)

About weather observations | Map of Perth area stations | Latest observations for Perth area | Other Formats
Station Details ID: 009021 Name: PERTH AIRPORT Lat: -31.93 Lon: 115.98 Height: 15.4 m
Data from the previous 72 hours. | See also: Recent months at Perth Airport
Date/Time
WST
Tmp

°C
App
Tmp
°C
Dew
Point
°C
Rel
Hum
%
Delta-T

°C
Wind Press
QNH
hPa
Press
MSL
hPa
Rain
since
9 am
mm
Dir
 
Spd
km/h
Gust
km/h
Spd
kts
Gust
kts
24/05:00pm 18.7 16.0 10.5 59 4.4 S 15 19 8 10 1020.2 - 0.0
24/04:30pm 19.8 18.4 11.0 57 4.8 S 9 13 5 7 1020.2 - 0.0
24/04:00pm 19.9 18.5 10.9 56 4.9 S 9 11 5 6 1020.2 - 0.0
24/03:30pm 19.9 18.4 10.7 55 5.0 S 9 17 5 9 1020.2 - 0.0
24/03:00pm 20.0 18.5 10.6 54 5.1 S 9 13 5 7 1020.2 1020.2 0.0
24/02:30pm 20.5 19.5 11.0 54 5.2 S 7 9 4 5 1020.1 - 0.0
24/02:00pm 19.9 18.4 10.7 55 5.0 SSW 9 13 5 7 1020.2 - 0.0
24/01:30pm 19.8 18.0 11.0 57 4.8 SW 11 15 6 8 1020.3 - 0.0
24/01:00pm 19.6 18.2 11.0 57 4.7 WSW 9 13 5 7 1020.6 - 0.0
24/12:30pm 19.6 18.8 11.2 58 4.6 SE 6 9 3 5 1020.9 - 0.0
24/12:00pm 20.2 18.8 11.0 55 5.0 S 9 26 5 14 1021.2 1021.2 0.0
24/11:00am 18.7 17.8 10.7 59 4.3 W 6 11 3 6 1021.9 - 0.0
24/10:30am 17.3 16.1 11.6 69 3.1 NNE 9 13 5 7 1022.3 - 0.0
24/10:00am 17.3 16.5 11.2 67 3.3 SSW 6 9 3 5 1022.6 - 0.0
24/09:00am 14.5 12.9 11.5 82 1.6 SSW 11 13 6 7 1022.7 1022.7 0.0
24/08:30am 13.7 11.7 11.4 86 1.2 S 13 17 7 9 1022.5 - 0.0
24/08:00am 12.4 10.4 11.4 94 0.5 S 13 17 7 9 1022.4 - 0.0
24/07:30am 10.6 8.9 9.8 95 0.4 SSW 9 11 5 6 1022.1 - 0.0
24/07:00am 9.7 7.0 8.9 95 0.4 SSW 13 15 7 8 1021.8 - 0.0
24/06:30am 8.3 4.9 7.7 96 0.3 S 15 17 8 9 1021.6 - 0.0
24/06:00am 8.2 5.1 7.1 93 0.5 SSW 13 15 7 8 1021.3 1021.3 0.0
24/05:30am 7.6 6.6 7.2 97 0.2 SSW 2 7 1 4 1021.3 - 0.0
24/05:00am 7.6 7.0 7.2 97 0.2 CALM 0 0 0 0 1021.2 - 0.0
24/04:30am 7.8 7.2 7.6 99 0.1 CALM 0 0 0 0 1021.0 - 0.0
24/04:00am 8.1 7.6 7.7 97 0.2 CALM 0 0 0 0 1021.0 - 0.0
24/03:30am 8.8 7.7 8.4 97 0.2 E 4 9 2 5 1021.0 - 0.0
24/03:00am 9.1 8.8 8.7 97 0.2 CALM 0 0 0 0 1020.9 1020.9 0.0
24/02:30am 9.6 9.1 9.2 97 0.2 NE 2 7 1 4 1021.0 - 0.0
24/02:00am 8.3 7.8 7.9 97 0.2 CALM 0 0 0 0 1020.9 - 0.0
24/01:30am 9.2 7.6 8.8 97 0.2 SSW 7 9 4 5 1020.7 - 0.0
24/01:00am 9.1 8.4 8.5 96 0.3 SSE 2 9 1 5 1020.5 - 0.0
24/12:30am 9.6 9.0 9.0 96 0.3 ESE 2 6 1 3 1020.5 - 0.0
 
Date/Time
WST
Tmp

°C
App
Tmp
°C
Dew
Point
°C
Rel
Hum
%
Delta-T

°C
Wind Press
QNH
hPa
Press
MSL
hPa
Rain
since
9 am
mm
Dir
 
Spd
km/h
Gust
km/h
Spd
kts
Gust
kts
23/11:30pm 10.3 8.9 9.7 96 0.3 ESE 7 9 4 5 1020.1 - 0.0
23/11:00pm 10.6 9.8 9.8 95 0.4 S 4 7 2 4 1020.2 - 0.0
23/10:30pm 11.8 10.8 11.0 95 0.4 WSW 7 11 4 6 1020.3 - 0.0
23/10:00pm 12.2 11.3 11.4 95 0.4 SW 7 9 4 5 1020.3 - 0.0
23/09:30pm 12.6 13.1 11.5 93 0.6 CALM 0 6 0 3 1020.2 - 0.0
23/08:30pm 15.1 13.6 13.1 88 1.1 S 13 17 7 9 1020.1 - 0.0
23/08:00pm 15.7 13.5 13.4 86 1.3 S 17 19 9 10 1020.1 - 0.0
23/07:30pm 16.3 13.5 13.3 82 1.7 S 20 28 11 15 1019.8 - 0.0
23/07:00pm 16.8 12.8 13.0 78 2.1 SSW 26 35 14 19 1019.6 - 0.0
23/06:30pm 17.2 15.1 13.5 79 2.1 SSW 17 20 9 11 1019.5 - 0.0
23/06:00pm 17.5 15.3 13.2 76 2.4 SSW 17 19 9 10 1019.2 1019.2 0.0
23/05:30pm 18.3 16.8 11.9 66 3.5 SW 11 20 6 11 1018.8 - 0.0
23/05:00pm 19.3 17.4 11.7 61 4.2 WSW 13 19 7 10 1018.6 - 0.0
23/04:30pm 19.7 17.6 11.3 58 4.6 WSW 13 17 7 9 1018.5 - 0.0
23/04:00pm 20.0 17.7 11.9 59 4.5 WSW 15 19 8 10 1018.3 - 0.0
23/03:30pm 19.9 17.9 12.6 63 4.1 WSW 15 20 8 11 1018.2 - 0.0
23/03:00pm 20.0 17.2 13.1 64 3.9 WSW 20 28 11 15 1018.1 1018.1 0.0
23/02:30pm 20.8 17.6 11.4 55 5.2 W 19 33 10 18 1017.9 - 0.0
23/02:00pm 20.7 18.1 12.1 58 4.8 WSW 17 24 9 13 1017.9 - 0.0
23/01:30pm 20.1 18.1 11.4 57 4.8 WSW 13 19 7 10 1018.0 - 0.0
23/01:00pm 20.3 18.3 11.4 56 4.9 SW 13 19 7 10 1018.2 - 0.0
23/12:30pm 21.5 20.2 11.4 52 5.6 WNW 9 17 5 9 1018.4 - 0.0
23/12:00pm 20.9 19.6 11.3 54 5.3 NNW 9 17 5 9 1018.7 1018.7 0.0
23/11:30am 20.7 19.4 11.2 54 5.2 N 9 15 5 8 1019.0 - 0.0
23/11:00am 19.5 18.2 11.1 58 4.6 N 9 13 5 7 1019.2 - 0.0
23/10:30am 17.9 17.0 10.6 62 3.9 N 6 9 3 5 1019.4 - 0.0
23/10:00am 16.3 15.0 9.8 65 3.4 N 7 9 4 5 1019.4 - 0.0
23/09:30am 14.6 12.5 8.4 66 3.1 NNE 9 11 5 6 1019.4 - 0.0
23/09:00am 12.6 10.0 7.7 72 2.4 NNE 11 13 6 7 1019.4 1019.4 0.0
23/08:30am 10.8 8.1 7.5 80 1.6 N 11 13 6 7 1019.3 - 0.0
23/08:00am 8.9 6.2 7.4 90 0.7 NNE 11 13 6 7 1019.2 - 0.0
23/07:30am 7.0 4.1 6.3 95 0.3 N 11 13 6 7 1018.8 - 0.0
23/07:00am 6.1 3.0 5.4 95 0.3 N 11 13 6 7 1018.6 - 0.0
23/06:30am 6.2 3.1 5.5 95 0.3 N 11 11 6 6 1018.3 - 0.0
23/06:00am 6.0 3.6 5.3 95 0.3 NNE 7 9 4 5 1018.4 1018.4 0.0
23/05:30am 6.2 3.9 5.7 97 0.2 NE 7 9 4 5 1018.2 - 0.0
23/05:00am 6.4 4.1 5.5 94 0.4 NNE 7 9 4 5 1018.0 - 0.0
23/04:30am 6.5 3.8 5.8 95 0.3 NNE 9 9 5 5 1017.9 - 0.0
23/04:00am 6.9 3.9 6.2 95 0.3 N 11 11 6 6 1017.8 - 0.0
23/03:30am 7.4 4.9 6.5 94 0.4 N 9 11 5 6 1017.6 - 0.0
23/03:00am 8.4 5.6 6.9 90 0.7 NNE 11 13 6 7 1017.5 1017.5 0.0
23/02:30am 8.4 6.0 7.1 91 0.6 N 9 13 5 7 1017.4 - 0.0
23/02:00am 8.0 6.0 7.1 94 0.4 NNE 7 9 4 5 1017.5 - 0.0
23/01:30am 7.0 4.8 6.3 95 0.3 NE 7 9 4 5 1017.7 - 0.0
23/01:00am 7.4 5.3 6.7 95 0.3 NNE 7 9 4 5 1017.6 - 0.0
23/12:30am 7.8 6.8 7.4 97 0.2 N 2 7 1 4 1017.6 - 0.0
23/12:00am 8.3 7.7 7.4 94 0.4 CALM 0 0 0 0 1017.8 1017.8 0.0
 
Date/Time
WST
Tmp

°C
App
Tmp
°C
Dew
Point
°C
Rel
Hum
%
Delta-T

°C
Wind Press
QNH
hPa
Press
MSL
hPa
Rain
since
9 am
mm
Dir
 
Spd
km/h
Gust
km/h
Spd
kts
Gust
kts
22/11:30pm 8.8 7.9 7.7 93 0.5 NNW 2 7 1 4 1017.8 - 0.0
22/11:00pm 8.6 7.7 7.8 95 0.4 NNW 2 9 1 5 1017.8 - 0.0
22/10:30pm 8.8 6.9 7.7 93 0.5 S 7 9 4 5 1017.8 - 0.0
22/10:00pm 9.3 8.8 8.0 92 0.6 CALM 0 0 0 0 1017.9 - 0.0
22/09:30pm 9.8 9.1 8.4 91 0.7 S 2 7 1 4 1017.9 - 0.0
22/09:00pm 10.4 8.9 8.6 89 0.9 S 6 6 3 3 1018.0 1018.0 0.0
22/08:30pm 11.5 11.3 9.1 85 1.2 CALM 0 0 0 0 1018.0 - 0.0
22/08:00pm 11.8 10.3 9.2 84 1.3 SSE 7 11 4 6 1017.9 - 0.0
22/07:30pm 13.2 11.8 9.5 78 1.9 SSE 7 9 4 5 1018.0 - 0.0
22/07:00pm 15.7 13.2 9.7 67 3.1 S 13 15 7 8 1018.0 - 0.0
22/06:30pm 16.6 14.0 9.5 63 3.7 S 13 15 7 8 1017.9 - 0.0
22/06:00pm 17.0 14.0 9.3 60 4.0 SW 15 19 8 10 1017.4 1017.4 0.0
22/05:30pm 18.3 15.1 8.6 53 5.0 SW 15 22 8 12 1017.0 - 0.0
22/05:00pm 19.7 17.9 9.5 51 5.4 WSW 9 11 5 6 1016.9 - 0.0
22/04:30pm 21.8 20.4 8.8 43 6.9 WSW 6 9 3 5 1016.9 - 0.0
22/04:00pm 21.1 20.3 8.3 43 6.7 NNW 2 9 1 5 1016.9 - 0.0
22/03:30pm 21.8 19.4 7.2 39 7.5 NW 9 13 5 7 1016.8 - 0.0
22/03:00pm 21.5 19.1 7.0 39 7.4 N 9 15 5 8 1016.7 1016.7 0.0
22/02:30pm 22.1 20.2 6.6 36 7.9 ENE 6 11 3 6 1016.7 - 0.0
22/02:00pm 21.5 19.1 6.8 38 7.5 NNE 9 19 5 10 1016.9 - 0.0
22/01:30pm 21.4 18.4 6.1 37 7.7 N 11 17 6 9 1017.2 - 0.0
22/01:00pm 21.4 18.8 6.1 37 7.7 N 9 17 5 9 1017.6 - 0.0
22/12:30pm 21.1 18.2 6.7 39 7.3 NE 11 19 6 10 1018.0 - 0.0
22/12:00pm 20.4 16.7 6.2 39 7.1 NNE 15 24 8 13 1018.5 1018.5 0.0
22/11:30am 19.9 15.8 6.0 40 6.9 NE 17 28 9 15 1019.0 - 0.0
22/11:00am 19.4 15.6 7.6 46 6.0 ENE 17 24 9 13 1019.4 - 0.0
22/10:30am 17.9 13.5 7.3 50 5.3 ENE 20 26 11 14 1019.8 - 0.0
22/10:00am 16.5 11.9 6.7 52 4.8 ENE 20 28 11 15 1020.0 - 0.0
22/09:30am 15.8 11.2 6.6 54 4.5 ENE 20 28 11 15 1020.2 - 0.0
22/09:00am 14.4 8.5 6.0 57 4.0 ENE 26 32 14 17 1020.4 1020.4 0.0
22/08:30am 13.5 8.0 5.9 60 3.6 ENE 24 32 13 17 1020.6 - 0.0
22/08:00am 12.4 7.3 5.8 64 3.1 ENE 22 30 12 16 1020.6 - 0.0
22/07:30am 11.9 6.3 5.6 65 2.9 ENE 24 28 13 15 1020.3 - 0.0
22/07:00am 11.6 6.0 5.5 66 2.8 ENE 24 30 13 16 1020.4 - 0.0
22/06:30am 11.9 7.1 5.4 64 3.0 ENE 20 32 11 17 1020.3 - 0.0
22/06:00am 12.0 7.2 5.5 64 3.0 ENE 20 26 11 14 1020.4 1020.4 0.0
22/05:30am 12.2 7.4 5.5 63 3.1 ENE 20 26 11 14 1020.6 - 0.0
22/05:00am 12.5 7.9 5.6 63 3.2 ENE 19 26 10 14 1020.5 - 0.0
22/04:30am 12.7 7.9 5.6 62 3.3 ENE 20 26 11 14 1020.6 - 0.0
22/04:00am 12.7 8.4 5.4 61 3.4 ENE 17 24 9 13 1020.3 - 0.0
22/03:30am 12.7 9.2 5.6 62 3.3 NE 13 19 7 10 1020.5 - 0.0
22/03:00am 12.8 8.5 5.2 60 3.5 ENE 17 22 9 12 1020.8 1020.8 0.0
22/02:30am 13.0 8.6 5.0 58 3.7 ENE 17 22 9 12 1021.2 - 0.0
22/02:00am 13.1 9.1 5.1 58 3.7 ENE 15 19 8 10 1021.4 - 0.0
22/01:30am 13.1 8.7 4.8 57 3.8 ENE 17 20 9 11 1021.7 - 0.0
22/01:00am 12.9 8.6 5.1 59 3.6 ENE 17 19 9 10 1021.9 - 0.0
22/12:30am 12.8 9.6 5.2 60 3.5 ENE 11 15 6 8 1022.0 - 0.0
22/12:00am 13.1 8.9 5.6 60 3.5 ENE 17 28 9 15 1022.2 1022.2 0.0
 
Date/Time
WST
Tmp

°C
App
Tmp
°C
Dew
Point
°C
Rel
Hum
%
Delta-T

°C
Wind Press
QNH
hPa
Press
MSL
hPa
Rain
since
9 am
mm
Dir
 
Spd
km/h
Gust
km/h
Spd
kts
Gust
kts
21/11:30pm 13.6 9.1 4.4 53 4.2 ENE 17 20 9 11 1022.3 - 0.0
21/11:00pm 14.1 8.2 4.0 50 4.6 ENE 24 32 13 17 1022.2 - 0.0
21/10:30pm 14.4 10.7 4.4 51 4.6 NE 13 20 7 11 1022.5 - 0.0
21/10:00pm 14.9 11.6 4.8 51 4.7 ENE 11 24 6 13 1022.4 - 0.0
21/09:30pm 15.2 11.5 4.4 48 5.0 E 13 20 7 11 1022.3 - 0.0
21/09:00pm 15.2 11.5 4.7 49 4.9 E 13 19 7 10 1022.3 1022.3 0.0
21/08:30pm 15.6 11.5 4.1 46 5.3 E 15 20 8 11 1022.3 - 0.0
21/08:00pm 15.5 12.2 4.5 48 5.1 E 11 19 6 10 1022.4 - 0.0
21/07:30pm 15.4 11.7 4.7 49 5.0 E 13 22 7 12 1022.6 - 0.0
21/07:00pm 15.8 11.3 4.4 46 5.3 E 17 32 9 17 1022.6 - 0.0
21/06:30pm 15.8 11.7 4.4 46 5.3 E 15 35 8 19 1022.6 - 0.0
21/06:00pm 15.3 11.7 4.8 49 4.9 E 13 19 7 10 1022.5 1022.5 0.0
21/05:30pm 16.0 11.1 4.1 45 5.5 E 19 24 10 13 1022.3 - 0.0

Latest Capital City Observations: Canberra | Sydney | Melbourne | Brisbane | Adelaide | Perth | Hobart | Darwin

Other Formats:

Comma delimited format used in spreadsheet applications
http://www.bom.gov.au/fwo/IDW60901/IDW60901.94610.axf

JavaScript Object Notation format (JSON) in row-major order
http://www.bom.gov.au/fwo/IDW60901/IDW60901.94610.json